Time;durP1;ratioP1;P1;durP2;ratioP2;P2;SDS_P1;SDS_P2;PMS_P1;PMS_P2;Temp;Humidity;BMP_temperature;BMP_pressure;BME280_temperature;BME280_humidity;BME280_pressure;Samples;Min_cycle;Max_cycle;Signal;HPM_P1;HPM_P2
2023/03/14 00:01:45;;;;;;;10.77;1.92;;;;;;;9.02;100.00;98899.25;5074936;28;20434;-68
2023/03/14 00:04:10;;;;;;;14.27;2.67;;;;;;;8.97;100.00;98893.63;5075678;28;20028;-68
2023/03/14 00:06:36;;;;;;;9.35;1.77;;;;;;;8.99;100.00;98891.66;5074715;28;20041;-68
2023/03/14 00:09:02;;;;;;;15.63;2.47;;;;;;;8.98;100.00;98882.03;5075110;28;20036;-68
2023/03/14 00:11:29;;;;;;;15.45;2.75;;;;;;;8.98;100.00;98885.50;5074962;28;20024;-67
2023/03/14 00:13:54;;;;;;;14.15;2.22;;;;;;;8.93;100.00;98877.25;5074921;28;20036;-67
2023/03/14 00:16:20;;;;;;;10.48;2.33;;;;;;;8.92;100.00;98872.13;5075371;28;20041;-68
2023/03/14 00:18:46;;;;;;;22.50;2.50;;;;;;;8.92;100.00;98893.34;5075247;28;20024;-67
2023/03/14 00:21:12;;;;;;;14.00;2.67;;;;;;;8.89;100.00;98875.16;5074631;28;20028;-67
2023/03/14 00:23:40;;;;;;;10.65;2.45;;;;;;;8.86;100.00;98891.41;5074895;28;20075;-67
2023/03/14 00:26:11;;;;;;;15.18;3.25;;;;;;;8.86;100.00;98891.41;5074630;28;20028;-67
2023/03/14 00:28:37;;;;;;;13.55;1.98;;;;;;;8.80;100.00;98895.59;5074740;28;20024;-67
2023/03/14 00:31:07;;;;;;;14.18;2.35;;;;;;;8.78;100.00;98903.72;5074690;28;20029;-67
2023/03/14 00:33:33;;;;;;;15.90;2.30;;;;;;;8.76;100.00;98903.06;5075100;28;20070;-67
2023/03/14 00:36:01;;;;;;;19.40;3.05;;;;;;;8.71;100.00;98894.81;5074578;28;20044;-67
2023/03/14 00:38:27;;;;;;;16.98;2.65;;;;;;;8.64;100.00;98896.50;5074421;28;20033;-67
2023/03/14 00:40:53;;;;;;;24.52;3.00;;;;;;;8.58;100.00;98903.34;5074361;28;20028;-67
2023/03/14 00:43:21;;;;;;;20.77;2.88;;;;;;;8.55;100.00;98889.59;5056504;28;20032;-66
2023/03/14 00:45:47;;;;;;;24.00;3.40;;;;;;;8.54;100.00;98909.13;5073600;28;20029;-66
2023/03/14 00:48:13;;;;;;;21.63;4.10;;;;;;;8.49;100.00;98895.59;5074265;28;20476;-66
2023/03/14 00:50:38;;;;;;;19.73;3.85;;;;;;;8.48;100.00;98897.41;5074087;28;20036;-67
2023/03/14 00:53:04;;;;;;;27.17;3.67;;;;;;;8.45;100.00;98903.88;5074634;28;20095;-66
2023/03/14 00:55:30;;;;;;;24.27;3.30;;;;;;;8.40;100.00;98900.88;5074620;28;20028;-68
2023/03/14 00:57:55;;;;;;;23.63;3.78;;;;;;;8.37;100.00;98914.47;5074165;28;20107;-67
2023/03/14 01:00:21;;;;;;;23.48;3.55;;;;;;;8.38;100.00;98896.78;5074802;28;20116;-69
2023/03/14 01:02:46;;;;;;;20.90;3.33;;;;;;;8.36;100.00;98901.41;5074196;28;20033;-67
2023/03/14 01:05:11;;;;;;;19.65;3.83;;;;;;;8.34;100.00;98917.47;5073945;28;20081;-67
2023/03/14 01:07:37;;;;;;;24.33;3.38;;;;;;;8.32;100.00;98916.81;5073870;28;20071;-67
2023/03/14 01:10:05;;;;;;;32.42;4.05;;;;;;;8.27;100.00;98913.84;5074107;28;20091;-67
2023/03/14 01:12:31;;;;;;;19.15;3.72;;;;;;;8.25;100.00;98915.84;5073641;28;20048;-68
2023/03/14 01:14:56;;;;;;;21.00;3.45;;;;;;;8.26;100.00;98917.50;5073553;28;20044;-68
2023/03/14 01:17:22;;;;;;;13.73;2.85;;;;;;;8.29;100.00;98895.97;5073764;28;20107;-67
2023/03/14 01:19:47;;;;;;;20.80;3.25;;;;;;;8.29;100.00;98899.44;5073622;28;20255;-68
2023/03/14 01:22:13;;;;;;;28.75;3.97;;;;;;;8.33;100.00;98881.38;5073922;28;20037;-68
2023/03/14 01:24:38;;;;;;;16.08;2.72;;;;;;;8.33;100.00;98869.94;5074038;28;20464;-68
2023/03/14 01:27:03;;;;;;;17.63;2.38;;;;;;;8.33;100.00;98865.50;5073917;28;20360;-67
2023/03/14 01:29:29;;;;;;;21.00;3.90;;;;;;;8.37;100.00;98873.91;5073998;28;20067;-67
2023/03/14 01:31:54;;;;;;;16.30;2.67;;;;;;;8.40;100.00;98881.50;5073372;28;20067;-67
2023/03/14 01:34:20;;;;;;;20.33;3.35;;;;;;;8.41;100.00;98889.28;5073271;28;20032;-68
2023/03/14 01:36:45;;;;;;;18.77;2.63;;;;;;;8.41;100.00;98897.22;5073398;28;20082;-68
2023/03/14 01:39:11;;;;;;;19.60;3.13;;;;;;;8.47;100.00;98895.75;5073338;28;20035;-67
2023/03/14 01:41:36;;;;;;;22.38;3.30;;;;;;;8.53;100.00;98891.59;5073320;28;20039;-67
2023/03/14 01:44:02;;;;;;;17.00;3.08;;;;;;;8.58;100.00;98881.28;5073604;28;20034;-67
2023/03/14 01:46:33;;;;;;;12.85;2.13;;;;;;;8.60;100.00;98884.59;5073108;28;20036;-69
2023/03/14 01:49:12;;;;;;;17.02;2.92;;;;;;;8.61;100.00;98881.78;5073032;28;20028;-67
2023/03/14 01:52:09;;;;;;;14.82;2.05;;;;;;;8.62;100.00;98872.81;5073437;28;20039;-68
2023/03/14 01:55:02;;;;;;;13.38;2.58;;;;;;;8.64;100.00;98883.22;5052808;28;20377;-68
2023/03/14 01:57:31;;;;;;;14.95;2.67;;;;;;;8.56;100.00;98878.00;5073581;28;20032;-67
2023/03/14 02:00:13;;;;;;;9.68;1.85;;;;;;;8.53;100.00;98870.38;5072869;28;20098;-67
2023/03/14 02:02:45;;;;;;;12.75;2.42;;;;;;;8.49;100.00;98871.72;5073175;28;20085;-68
2023/03/14 02:05:12;;;;;;;;;;;;;;;8.44;100.00;98878.38;5073478;28;20029;-68
2023/03/14 02:07:47;;;;;;;21.30;3.33;;;;;;;8.41;100.00;98870.72;5073129;28;19973;-68
2023/03/14 02:10:14;;;;;;;12.02;2.42;;;;;;;8.38;100.00;98868.44;5073059;28;20414;-68
2023/03/14 02:12:39;;;;;;;20.98;2.92;;;;;;;8.37;100.00;98872.06;5055012;28;20139;-68
2023/03/14 02:15:05;;;;;;;16.52;2.58;;;;;;;8.37;100.00;98858.81;5072995;28;20524;-68
2023/03/14 02:17:31;;;;;;;18.92;3.30;;;;;;;8.35;100.00;98860.00;5073070;28;20381;-68
2023/03/14 02:20:17;;;;;;;14.90;2.60;;;;;;;8.34;100.00;98861.81;5055449;28;20111;-68
2023/03/14 02:22:45;;;;;;;13.40;2.03;;;;;;;8.36;100.00;98856.34;5072866;28;20094;-67
2023/03/14 02:25:23;;;;;;;13.48;2.70;;;;;;;8.36;100.00;98862.50;5072943;28;20082;-68
2023/03/14 02:27:49;;;;;;;13.48;2.30;;;;;;;8.32;100.00;98858.53;5073024;28;20040;-67
2023/03/14 02:30:18;;;;;;;17.85;2.10;;;;;;;8.27;100.00;98855.56;5073089;28;20068;-67
2023/03/14 02:32:47;;;;;;;13.95;2.25;;;;;;;8.25;100.00;98855.72;5072916;28;20028;-68
2023/03/14 02:35:19;;;;;;;11.57;2.08;;;;;;;8.23;100.00;98862.22;5054785;28;20488;-68
2023/03/14 02:38:03;;;;;;;15.43;2.53;;;;;;;8.20;100.00;98854.63;5072865;28;20135;-68
2023/03/14 02:40:28;;;;;;;9.57;2.25;;;;;;;8.17;100.00;98854.97;5072680;28;20107;-67
2023/03/14 02:42:53;;;;;;;13.52;2.75;;;;;;;8.17;100.00;98850.47;5072887;28;20115;-67
2023/03/14 02:45:22;;;;;;;16.38;2.90;;;;;;;8.16;100.00;98859.41;5072678;28;20033;-68
2023/03/14 02:47:54;;;;;;;9.48;2.40;;;;;;;8.15;100.00;98838.41;5054693;28;20029;-68
2023/03/14 02:50:24;;;;;;;10.50;2.33;;;;;;;8.14;100.00;98842.88;5072649;28;20082;-68
2023/03/14 02:52:49;;;;;;;13.57;2.72;;;;;;;8.15;100.00;98843.69;5072249;28;20028;-68
2023/03/14 02:55:20;;;;;;;7.25;2.00;;;;;;;8.12;100.00;98845.69;5073124;28;20038;-68
2023/03/14 02:57:46;;;;;;;12.52;2.38;;;;;;;8.09;100.00;98834.59;5072251;28;20473;-69
2023/03/14 03:00:11;;;;;;;15.43;2.80;;;;;;;8.12;100.00;98845.69;5072544;28;20032;-69
2023/03/14 03:02:37;;;;;;;10.68;2.40;;;;;;;8.09;100.00;98834.59;5072911;28;20537;-69
2023/03/14 03:05:02;;;;;;;17.35;3.20;;;;;;;8.11;100.00;98833.44;5054156;28;20029;-68
2023/03/14 03:07:28;;;;;;;11.70;2.00;;;;;;;8.13;100.00;98835.91;5072462;28;20032;-68
2023/03/14 03:09:53;;;;;;;14.98;2.10;;;;;;;8.16;100.00;98832.94;5075477;28;20032;-68
2023/03/14 03:12:18;;;;;;;11.45;2.13;;;;;;;8.18;100.00;98830.09;5058151;28;20029;-67
2023/03/14 03:14:44;;;;;;;16.27;2.55;;;;;;;8.20;100.00;98823.63;5076006;28;20067;-68
2023/03/14 03:17:09;;;;;;;11.27;2.42;;;;;;;8.23;100.00;98827.78;5076288;28;20041;-68
2023/03/14 03:19:35;;;;;;;11.30;2.25;;;;;;;8.22;100.00;98832.22;5075705;28;20115;-68
2023/03/14 03:22:00;;;;;;;8.88;2.88;;;;;;;8.24;100.00;98818.81;5075736;28;20025;-68
2023/03/14 03:24:26;;;;;;;14.23;2.60;;;;;;;8.26;100.00;98824.78;5058266;28;20056;-68
2023/03/14 03:26:52;;;;;;;15.48;3.35;;;;;;;8.29;100.00;98817.28;5076268;28;20453;-68
2023/03/14 03:29:18;;;;;;;12.73;2.75;;;;;;;8.33;100.00;98825.75;5041327;28;20033;-68
2023/03/14 03:31:45;;;;;;;13.40;2.42;;;;;;;8.35;100.00;98825.56;5058542;28;20032;-68
2023/03/14 03:34:11;;;;;;;10.82;2.28;;;;;;;8.34;100.00;98843.28;5075610;28;20031;-68
2023/03/14 03:36:37;;;;;;;13.40;2.53;;;;;;;8.33;100.00;98820.44;5075720;28;20477;-68
2023/03/14 03:39:03;;;;;;;14.07;3.05;;;;;;;8.32;100.00;98815.31;5075615;28;20044;-68
2023/03/14 03:41:28;;;;;;;15.43;3.22;;;;;;;8.33;100.00;98828.38;5075722;28;20043;-68
2023/03/14 03:43:54;;;;;;;12.98;2.80;;;;;;;8.32;100.00;98826.72;5075440;28;20033;-68
2023/03/14 03:46:19;;;;;;;11.75;2.63;;;;;;;8.31;100.00;98825.06;5075157;28;20033;-68
2023/03/14 03:48:44;;;;;;;10.80;2.50;;;;;;;8.28;100.00;98820.13;5075440;28;20231;-69
2023/03/14 03:51:14;;;;;;;15.85;2.97;;;;;;;8.26;100.00;98822.94;5075203;28;20052;-67
2023/03/14 03:53:40;;;;;;;13.18;3.08;;;;;;;8.24;100.00;98826.75;5075468;28;20033;-67
2023/03/14 03:56:06;;;;;;;13.70;2.75;;;;;;;8.25;100.00;98821.28;5075254;28;20037;-69
2023/03/14 03:58:31;;;;;;;13.93;2.85;;;;;;;8.24;100.00;98832.06;5075531;28;20035;-68
2023/03/14 04:00:56;;;;;;;14.50;2.90;;;;;;;8.22;100.00;98839.38;5075706;28;20066;-68
2023/03/14 04:03:22;;;;;;;13.68;2.88;;;;;;;8.10;100.00;98838.91;5075317;28;20028;-69
2023/03/14 04:06:01;;;;;;;13.43;3.72;;;;;;;7.97;100.00;98839.44;5075110;28;20036;-69
2023/03/14 04:08:26;;;;;;;16.95;2.72;;;;;;;7.85;100.00;98838.16;5075146;28;20064;-69
2023/03/14 04:10:57;;;;;;;12.43;3.15;;;;;;;7.71;100.00;98845.81;5075675;28;20064;-69
2023/03/14 04:13:23;;;;;;;21.23;3.72;;;;;;;7.61;100.00;98850.47;5075167;28;20028;-69
2023/03/14 04:15:49;;;;;;;17.95;3.20;;;;;;;7.54;100.00;98841.56;5074886;28;20376;-69
2023/03/14 04:18:14;;;;;;;13.40;2.80;;;;;;;7.47;100.00;98837.94;5075036;28;20036;-69
2023/03/14 04:20:39;;;;;;;16.92;3.00;;;;;;;7.42;100.00;98841.09;5074772;28;20072;-70
2023/03/14 04:23:05;;;;;;;20.67;3.03;;;;;;;7.37;100.00;98841.56;5074502;28;20092;-69
2023/03/14 04:25:30;;;;;;;15.88;2.55;;;;;;;7.33;100.00;98837.63;5074945;28;20036;-69
2023/03/14 04:27:55;;;;;;;17.20;3.25;;;;;;;7.30;100.00;98840.63;5074610;28;20107;-69
2023/03/14 04:30:21;;;;;;;10.98;3.35;;;;;;;7.27;100.00;98843.59;5074734;28;20369;-69
2023/03/14 04:32:47;;;;;;;14.85;3.03;;;;;;;7.22;100.00;98849.34;5074620;28;20530;-71
2023/03/14 04:35:12;;;;;;;17.00;4.30;;;;;;;7.17;100.00;98843.75;5075082;28;20037;-69
2023/03/14 04:37:38;;;;;;;18.77;2.97;;;;;;;7.16;100.00;98836.78;5074869;28;20381;-69
2023/03/14 04:40:06;;;;;;;12.82;3.05;;;;;;;7.14;100.00;98838.78;5074390;28;20067;-69
2023/03/14 04:42:31;;;;;;;20.25;3.50;;;;;;;7.13;100.00;98831.84;5074516;28;20051;-69
2023/03/14 04:44:57;;;;;;;19.23;3.67;;;;;;;7.12;100.00;98834.66;5074347;28;20361;-69
2023/03/14 04:47:22;;;;;;;14.38;2.97;;;;;;;7.11;100.00;98831.19;5074872;28;20131;-69
2023/03/14 04:49:47;;;;;;;16.10;3.90;;;;;;;7.11;100.00;98833.03;5074418;28;20040;-69
2023/03/14 04:52:13;;;;;;;20.75;4.22;;;;;;;7.10;100.00;98820.78;5074026;28;20036;-69
2023/03/14 04:54:38;;;;;;;15.80;3.17;;;;;;;7.08;100.00;98823.59;5074968;28;20041;-69
2023/03/14 04:57:04;;;;;;;15.82;2.83;;;;;;;7.08;100.00;98828.88;5074609;28;20028;-69
2023/03/14 04:59:29;;;;;;;12.35;3.20;;;;;;;7.06;100.00;98831.69;5074134;28;20029;-69
2023/03/14 05:01:54;;;;;;;19.38;3.10;;;;;;;7.09;100.00;98829.69;5073639;28;20033;-70
2023/03/14 05:04:20;;;;;;;10.20;2.97;;;;;;;7.06;100.00;98844.91;5074290;28;20111;-69
2023/03/14 05:06:45;;;;;;;6.05;2.60;;;;;;;7.09;100.00;98845.56;5073852;28;20488;-69
2023/03/14 05:09:10;;;;;;;10.77;3.15;;;;;;;7.10;100.00;98841.94;5074608;28;20052;-69
2023/03/14 05:11:36;;;;;;;16.33;3.80;;;;;;;7.11;100.00;98846.25;5074074;28;20028;-69
2023/03/14 05:14:01;;;;;;;9.88;3.70;;;;;;;7.12;100.00;98871.69;5073966;28;20039;-69
2023/03/14 05:16:26;;;;;;;8.32;3.10;;;;;;;7.11;100.00;98864.75;5073843;28;20102;-69
2023/03/14 05:18:52;;;;;;;7.72;2.67;;;;;;;7.05;100.00;98864.41;5073801;28;20056;-69
2023/03/14 05:21:17;;;;;;;8.55;2.17;;;;;;;6.91;100.00;98893.31;5056424;28;20033;-69
2023/03/14 05:23:43;;;;;;;17.27;3.85;;;;;;;6.64;100.00;98901.38;5074078;28;20497;-68
2023/03/14 05:26:08;;;;;;;12.23;2.17;;;;;;;6.41;100.00;98910.88;5073251;28;20052;-68
2023/03/14 05:28:33;;;;;;;10.27;2.13;;;;;;;6.21;100.00;98915.56;5073552;28;20029;-68
2023/03/14 05:30:59;;;;;;;11.43;2.00;;;;;;;6.08;100.00;98918.66;5073003;28;20035;-68
2023/03/14 05:33:24;;;;;;;7.85;1.48;;;;;;;5.93;100.00;98931.56;5073542;28;20120;-68
2023/03/14 05:35:49;;;;;;;15.32;2.30;;;;;;;5.83;100.00;98927.19;5073542;28;20392;-69
2023/03/14 05:38:15;;;;;;;9.13;1.90;;;;;;;5.77;100.00;98934.91;5073583;28;20036;-68
2023/03/14 05:40:40;;;;;;;10.32;1.63;;;;;;;5.70;100.00;98958.44;5073687;28;20029;-69
2023/03/14 05:43:07;;;;;;;11.10;1.50;;;;;;;5.62;100.00;98951.28;5073327;28;20124;-68
2023/03/14 05:45:33;;;;;;;11.45;2.10;;;;;;;5.57;100.00;98955.38;5073408;28;20108;-68
2023/03/14 05:47:58;;;;;;;16.70;1.50;;;;;;;5.54;100.00;98960.94;5073626;28;20040;-68
2023/03/14 05:50:24;;;;;;;20.25;2.15;;;;;;;5.51;100.00;98962.09;5072955;28;20040;-68
2023/03/14 05:52:49;;;;;;;13.95;2.30;;;;;;;5.50;100.00;98980.72;5073532;28;20040;-68
2023/03/14 05:55:14;;;;;;;8.70;1.77;;;;;;;5.48;100.00;98979.06;5073220;28;20538;-68
2023/03/14 05:57:40;;;;;;;10.63;1.30;;;;;;;5.46;100.00;98980.19;5055554;28;20040;-68
2023/03/14 06:00:06;;;;;;;15.43;2.35;;;;;;;5.45;100.00;98979.38;5072812;28;20025;-68
2023/03/14 06:02:31;;;;;;;7.65;1.27;;;;;;;5.43;100.00;98991.88;5073206;28;20032;-68
2023/03/14 06:04:56;;;;;;;8.70;1.77;;;;;;;5.41;100.00;98993.00;5073099;28;20040;-68
2023/03/14 06:07:22;;;;;;;9.85;2.05;;;;;;;5.41;100.00;98998.28;5072955;28;20029;-68
2023/03/14 06:09:47;;;;;;;8.40;1.63;;;;;;;5.39;100.00;99006.34;5073067;28;20074;-68
2023/03/14 06:12:12;;;;;;;5.95;1.30;;;;;;;5.37;100.00;99012.75;5072995;28;20491;-68
2023/03/14 06:14:38;;;;;;;12.35;1.45;;;;;;;5.33;100.00;99016.66;5073030;28;20040;-69
2023/03/14 06:17:03;;;;;;;6.10;1.85;;;;;;;5.26;100.00;99029.63;5072705;28;20033;-68
2023/03/14 06:19:28;;;;;;;2.97;0.95;;;;;;;5.19;100.00;99037.28;5073958;28;20090;-68
2023/03/14 06:21:54;;;;;;;4.55;1.00;;;;;;;5.12;100.00;99037.06;5072879;28;20033;-68
2023/03/14 06:24:19;;;;;;;13.50;1.40;;;;;;;5.12;100.00;99052.06;5072801;28;20109;-69
2023/03/14 06:26:45;;;;;;;9.02;1.25;;;;;;;5.05;100.00;99054.44;5072548;28;20049;-67
2023/03/14 06:29:10;;;;;;;5.60;1.00;;;;;;;5.03;100.00;99060.81;5073108;28;20115;-68
2023/03/14 06:31:36;;;;;;;9.50;1.73;;;;;;;4.97;100.00;99067.53;5072950;28;20056;-68
2023/03/14 06:34:02;;;;;;;6.05;1.05;;;;;;;4.93;100.00;99072.25;5072924;28;20036;-70
2023/03/14 06:36:27;;;;;;;6.60;1.38;;;;;;;4.90;100.00;99075.19;5072910;28;20043;-68
2023/03/14 06:38:52;;;;;;;11.88;1.98;;;;;;;4.89;100.00;99091.97;5072749;28;20039;-67
2023/03/14 06:41:18;;;;;;;6.47;1.17;;;;;;;4.86;100.00;99092.25;5072716;28;20472;-68
2023/03/14 06:43:44;;;;;;;8.48;1.40;;;;;;;4.86;100.00;99094.88;5074065;28;20067;-68
2023/03/14 06:46:09;;;;;;;9.55;1.60;;;;;;;4.84;100.00;99098.66;5076315;28;20033;-68
2023/03/14 06:48:35;;;;;;;13.60;1.35;;;;;;;4.86;100.00;99110.69;5077018;28;20403;-67
2023/03/14 06:51:00;;;;;;;18.33;1.90;;;;;;;4.89;100.00;99122.78;5058734;28;20033;-69
2023/03/14 06:53:25;;;;;;;13.57;1.65;;;;;;;4.89;100.00;99146.50;5076618;28;20028;-68
2023/03/14 06:55:51;;;;;;;10.38;1.77;;;;;;;4.89;100.00;99152.59;5076361;28;20036;-68
2023/03/14 06:58:16;;;;;;;11.18;1.80;;;;;;;4.91;100.00;99155.91;5057747;28;20037;-69
2023/03/14 07:00:42;;;;;;;9.30;2.05;;;;;;;4.93;100.00;99161.88;5076208;28;20024;-67
2023/03/14 07:03:08;;;;;;;8.43;1.50;;;;;;;4.93;100.00;99175.03;5076133;28;20042;-68
2023/03/14 07:05:33;;;;;;;6.80;1.40;;;;;;;4.97;100.00;99185.31;5075628;28;20165;-67
2023/03/14 07:07:59;;;;;;;11.63;2.00;;;;;;;4.99;100.00;99191.28;5075501;28;20064;-69
2023/03/14 07:10:24;;;;;;;11.88;1.58;;;;;;;4.95;100.00;99196.00;5076338;28;20037;-68
2023/03/14 07:12:50;;;;;;;12.38;1.30;;;;;;;4.90;100.00;99198.25;5075786;28;20028;-68
2023/03/14 07:15:15;;;;;;;8.50;1.58;;;;;;;4.88;100.00;99205.44;5057587;28;20032;-70
2023/03/14 07:17:40;;;;;;;10.20;1.50;;;;;;;4.84;100.00;99212.81;5075993;28;20037;-69
2023/03/14 07:20:07;;;;;;;10.18;1.92;;;;;;;4.87;100.00;99222.25;5075816;28;20024;-68
2023/03/14 07:22:33;;;;;;;8.27;1.13;;;;;;;4.91;100.00;99229.72;5075972;28;20033;-68
2023/03/14 07:24:58;;;;;;;8.73;1.67;;;;;;;4.92;100.00;99246.34;5075399;28;20063;-68
2023/03/14 07:27:23;;;;;;;8.90;1.77;;;;;;;4.90;100.00;99257.03;5057342;28;20040;-69
2023/03/14 07:29:49;;;;;;;10.70;1.45;;;;;;;4.88;100.00;99269.53;5075485;28;20116;-69
2023/03/14 07:32:14;;;;;;;6.18;1.10;;;;;;;4.80;100.00;99284.38;5075319;28;20483;-70
2023/03/14 07:34:43;;;;;;;7.13;1.20;;;;;;;4.65;100.00;99300.59;5075500;28;20431;-71
2023/03/14 07:37:09;;;;;;;7.72;1.83;;;;;;;4.47;100.00;99303.09;5075830;28;20444;-69
2023/03/14 07:39:34;;;;;;;12.52;1.95;;;;;;;4.35;100.00;99326.09;5075678;28;20530;-68
2023/03/14 07:42:00;;;;;;;10.60;1.80;;;;;;;4.28;100.00;99337.31;5075707;28;20025;-69
2023/03/14 07:44:26;;;;;;;9.45;2.10;;;;;;;4.21;100.00;99353.66;5075201;28;20060;-70
2023/03/14 07:46:51;;;;;;;13.00;1.95;;;;;;;4.17;100.00;99356.69;5075202;28;20040;-69
2023/03/14 07:49:17;;;;;;;14.88;1.70;;;;;;;4.13;100.00;99378.97;5075140;28;20111;-70
2023/03/14 07:51:43;;;;;;;16.33;2.33;;;;;;;4.12;100.00;99386.03;5075428;28;20108;-67
2023/03/14 07:54:09;;;;;;;14.95;1.77;;;;;;;4.08;100.00;99403.06;5074450;28;20040;-69
2023/03/14 07:56:35;;;;;;;8.55;1.65;;;;;;;4.00;100.00;99419.53;5074965;28;20032;-68
2023/03/14 07:59:00;;;;;;;6.07;1.45;;;;;;;3.88;100.00;99431.94;5075241;28;20052;-69
2023/03/14 08:01:26;;;;;;;7.28;1.70;;;;;;;3.84;100.00;99441.03;5074876;28;20158;-69
2023/03/14 08:03:51;;;;;;;7.38;1.63;;;;;;;3.83;100.00;99444.63;5075338;28;20032;-68
2023/03/14 08:06:17;;;;;;;11.55;2.05;;;;;;;3.88;100.00;99447.72;5074645;28;20108;-68
2023/03/14 08:08:42;;;;;;;16.45;1.35;;;;;;;3.98;100.00;99458.28;5074687;28;20029;-69
2023/03/14 08:11:08;;;;;;;18.77;2.20;;;;;;;4.09;100.00;99474.97;5074659;28;20044;-69
2023/03/14 08:13:34;;;;;;;23.70;3.13;;;;;;;4.06;100.00;99481.31;5074706;28;20094;-68
2023/03/14 08:16:00;;;;;;;10.23;1.80;;;;;;;4.03;100.00;99500.00;5074608;28;20039;-69
2023/03/14 08:18:25;;;;;;;13.13;1.80;;;;;;;3.99;100.00;99509.97;5075043;28;20115;-70
2023/03/14 08:20:51;;;;;;;9.70;1.40;;;;;;;3.85;100.00;99515.53;5074302;28;20490;-69
2023/03/14 08:23:16;;;;;;;7.28;1.58;;;;;;;3.74;100.00;99521.72;5074643;28;20024;-70
2023/03/14 08:25:41;;;;;;;11.63;1.65;;;;;;;3.66;100.00;99542.56;5056462;28;20060;-69
2023/03/14 08:28:07;;;;;;;14.10;1.73;;;;;;;3.51;100.00;99558.63;5074690;28;20032;-69
2023/03/14 08:30:32;;;;;;;9.10;1.70;;;;;;;3.33;100.00;99557.50;5074363;28;20024;-68
2023/03/14 08:32:58;;;;;;;11.15;2.10;;;;;;;3.28;100.00;99567.53;5074322;28;20388;-69
2023/03/14 08:35:25;;;;;;;12.75;2.53;;;;;;;3.32;100.00;99576.88;5074933;28;20036;-68
2023/03/14 08:37:51;;;;;;;11.55;2.25;;;;;;;3.48;100.00;99585.19;5074232;28;20032;-69
2023/03/14 08:40:17;;;;;;;20.15;2.75;;;;;;;3.81;100.00;99593.91;5057051;28;20367;-68
2023/03/14 08:42:43;;;;;;;9.52;2.20;;;;;;;4.14;100.00;99610.50;5074189;28;20032;-69
2023/03/14 08:45:12;;;;;;;9.00;2.00;;;;;;;4.43;100.00;99620.38;5074180;28;20039;-68
2023/03/14 08:47:37;;;;;;;14.38;2.13;;;;;;;4.62;100.00;99632.03;5074108;28;20052;-69
2023/03/14 08:50:05;;;;;;;10.18;1.90;;;;;;;4.67;100.00;99640.34;5056158;28;20064;-70
2023/03/14 08:52:31;;;;;;;13.40;1.98;;;;;;;4.73;100.00;99642.47;5074098;28;20389;-69
2023/03/14 08:54:57;;;;;;;18.88;2.28;;;;;;;4.82;100.00;99651.41;5073980;28;20106;-69
2023/03/14 08:57:27;;;;;;;18.25;2.90;;;;;;;4.95;100.00;99666.03;5056648;28;20438;-69
2023/03/14 08:59:53;;;;;;;16.52;3.50;;;;;;;5.05;100.00;99665.25;5074160;28;20036;-69
2023/03/14 09:02:18;;;;;;;22.08;3.67;;;;;;;5.14;100.00;99675.00;5073518;28;20059;-69
2023/03/14 09:04:43;;;;;;;21.10;3.05;;;;;;;5.17;100.00;99676.53;5073964;28;20064;-69
2023/03/14 09:07:09;;;;;;;30.48;3.47;;;;;;;5.10;100.00;99679.69;5072854;28;20024;-69
2023/03/14 09:09:34;;;;;;;18.50;2.97;;;;;;;5.08;100.00;99694.81;5055790;28;20044;-68
2023/03/14 09:11:59;;;;;;;19.33;4.15;;;;;;;5.11;100.00;99707.72;5073615;28;20028;-68
2023/03/14 09:14:25;;;;;;;21.05;3.33;;;;;;;5.12;100.00;99712.06;5073502;28;20047;-69
2023/03/14 09:16:50;;;;;;;15.07;2.72;;;;;;;5.06;100.00;99720.50;5073567;28;20051;-69
2023/03/14 09:19:16;;;;;;;22.42;2.83;;;;;;;4.93;100.00;99733.88;5073579;28;20056;-69
2023/03/14 09:21:41;;;;;;;16.42;2.95;;;;;;;4.89;100.00;99755.34;5073094;28;20038;-69
2023/03/14 09:24:07;;;;;;;31.17;7.07;;;;;;;4.72;100.00;99783.13;5072894;28;20393;-70
2023/03/14 09:26:32;;;;;;;25.55;4.15;;;;;;;4.45;100.00;99789.69;5073467;28;20029;-70
2023/03/14 09:28:58;;;;;;;21.05;2.95;;;;;;;4.17;100.00;99799.00;5073321;28;20032;-70
2023/03/14 09:31:23;;;;;;;13.95;2.45;;;;;;;3.91;100.00;99811.59;5073190;28;20499;-70
2023/03/14 09:33:49;;;;;;;15.35;2.95;;;;;;;3.80;100.00;99817.69;5073611;28;20033;-70
2023/03/14 09:36:14;;;;;;;19.20;2.95;;;;;;;3.89;100.00;99825.69;5073562;28;20105;-70
2023/03/14 09:38:39;;;;;;;22.08;2.67;;;;;;;4.22;100.00;99825.78;5073071;28;20104;-70
2023/03/14 09:41:17;;;;;;;23.38;2.63;;;;;;;4.89;100.00;99829.97;5073340;28;20043;-69
2023/03/14 09:43:46;;;;;;;13.15;2.35;;;;;;;5.82;100.00;99835.38;5072999;28;20102;-69
2023/03/14 09:46:13;;;;;;;18.50;2.67;;;;;;;7.71;100.00;99841.28;5072973;28;20099;-69
2023/03/14 09:48:39;;;;;;;14.50;2.72;;;;;;;8.59;100.00;99843.50;5072827;28;20469;-70
2023/03/14 09:51:12;;;;;;;26.33;3.60;;;;;;;7.95;100.00;99851.38;5072782;28;20020;-70
2023/03/14 09:53:44;;;;;;;25.63;4.18;;;;;;;7.39;100.00;99855.75;5072461;28;20029;-69
2023/03/14 09:56:32;;;;;;;26.05;3.58;;;;;;;6.64;100.00;99870.53;5072764;28;20037;-70
2023/03/14 09:59:06;;;;;;;27.77;3.72;;;;;;;6.26;100.00;99883.53;5072886;28;20024;-69
2023/03/14 10:01:33;;;;;;;22.20;3.22;;;;;;;5.96;100.00;99892.28;5072790;28;20081;-69
2023/03/14 10:04:06;;;;;;;22.50;3.13;;;;;;;5.81;100.00;99900.53;5073083;28;20121;-69
2023/03/14 10:06:31;;;;;;;21.02;3.20;;;;;;;5.83;100.00;99914.44;5073217;28;20028;-69
2023/03/14 10:08:57;;;;;;;27.58;4.03;;;;;;;5.69;100.00;99930.63;5072967;28;20031;-68
2023/03/14 10:11:23;;;;;;;33.20;3.08;;;;;;;5.66;100.00;99933.53;5073356;28;20512;-68
2023/03/14 10:14:06;;;;;;;32.40;4.10;;;;;;;5.53;100.00;99936.34;5073191;28;20066;-68
2023/03/14 10:16:34;;;;;;;19.60;3.35;;;;;;;5.50;100.00;99949.81;5072521;28;20024;-69
2023/03/14 10:19:10;;;;;;;27.10;3.90;;;;;;;5.61;100.00;99959.47;5072610;28;20040;-69
2023/03/14 10:21:39;;;;;;;26.88;3.70;;;;;;;5.65;100.00;99972.25;5072629;28;20116;-69
2023/03/14 10:24:34;;;;;;;22.17;3.35;;;;;;;5.83;100.00;99975.16;5072963;28;20044;-69
2023/03/14 10:27:08;;;;;;;30.23;4.28;;;;;;;5.86;100.00;99989.09;5073007;28;20048;-69
2023/03/14 10:29:50;;;;;;;21.70;3.40;;;;;;;5.82;100.00;99999.03;5073114;28;20028;-69
2023/03/14 10:32:20;;;;;;;21.45;3.28;;;;;;;5.64;100.00;100014.63;5072258;28;20029;-69
2023/03/14 10:35:04;;;;;;;22.75;4.22;;;;;;;5.45;100.00;100012.69;5054700;28;20068;-68
2023/03/14 10:37:30;;;;;;;24.73;3.45;;;;;;;5.47;100.00;100022.13;5072441;28;20031;-69
2023/03/14 10:40:05;;;;;;;27.42;3.47;;;;;;;5.45;100.00;100033.81;5072670;28;20028;-69
2023/03/14 10:42:34;;;;;;;22.83;3.05;;;;;;;5.47;100.00;100035.31;5072618;28;20082;-69
2023/03/14 10:45:22;;;;;;;21.95;3.03;;;;;;;5.59;100.00;100053.78;5072321;28;20032;-67
2023/03/14 10:47:51;;;;;;;16.42;2.92;;;;;;;5.80;100.00;100059.91;5072926;28;20021;-67
2023/03/14 10:50:27;;;;;;;22.30;2.88;;;;;;;6.01;100.00;100067.03;5072580;28;20127;-68
2023/03/14 10:52:54;;;;;;;22.35;2.75;;;;;;;6.25;100.00;100084.44;5072324;28;20033;-68
2023/03/14 10:55:20;;;;;;;18.73;3.35;;;;;;;6.40;100.00;100090.22;5072307;28;20134;-68
2023/03/14 10:57:45;;;;;;;16.67;3.00;;;;;;;6.57;100.00;100094.91;5072135;28;20127;-68
2023/03/14 11:00:19;;;;;;;22.30;3.28;;;;;;;6.44;100.00;100112.78;5072423;28;20031;-68
2023/03/14 11:02:59;;;;;;;18.55;2.60;;;;;;;7.05;100.00;100109.31;5072192;28;20082;-68
2023/03/14 11:05:46;;;;;;;14.48;3.30;;;;;;;7.85;100.00;100119.91;5072237;28;20032;-68
2023/03/14 11:08:20;;;;;;;16.23;2.72;;;;;;;8.73;100.00;100127.75;5072358;28;20028;-70
2023/03/14 11:10:51;;;;;;;18.75;2.63;;;;;;;9.05;87.20;100145.94;5072711;28;20060;-69
2023/03/14 11:13:25;;;;;;;20.80;2.28;;;;;;;9.05;82.85;100153.91;5072278;28;20024;-69
2023/03/14 11:16:01;;;;;;;14.88;3.17;;;;;;;9.45;76.01;100179.28;5072301;28;20468;-70
2023/03/14 11:19:04;;;;;;;11.63;2.35;;;;;;;9.95;75.00;100167.34;5071919;28;20545;-70
2023/03/14 11:21:42;;;;;;;16.33;2.63;;;;;;;10.18;70.06;100180.19;5072865;28;20395;-70
2023/03/14 11:24:29;;;;;;;15.57;2.92;;;;;;;9.78;66.27;100194.75;5072192;28;20051;-69
2023/03/14 11:27:12;;;;;;;14.75;2.58;;;;;;;10.06;59.54;100192.88;5072758;28;20369;-69
2023/03/14 11:29:46;;;;;;;14.80;2.13;;;;;;;9.87;60.48;100205.31;5055615;28;20037;-69